createdAt,value
2018-06-24T00:00:08.647Z,2.90
2018-06-24T00:01:08.837Z,3.40
2018-06-24T00:02:09.038Z,3.00
2018-06-24T00:03:09.246Z,3.00
2018-06-24T00:04:09.453Z,3.00
2018-06-24T00:05:09.653Z,2.90
2018-06-24T00:06:09.865Z,2.80
2018-06-24T00:07:10.053Z,3.40
2018-06-24T00:08:10.298Z,3.30
2018-06-24T00:09:10.502Z,2.90
2018-06-24T00:10:10.714Z,3.10
2018-06-24T00:11:10.918Z,3.20
2018-06-24T00:12:11.112Z,3.30
2018-06-24T00:13:11.319Z,2.80
2018-06-24T00:14:11.529Z,3.20
2018-06-24T00:15:11.703Z,3.20
2018-06-24T00:16:11.917Z,2.80
2018-06-24T00:17:12.134Z,3.20
2018-06-24T00:18:12.316Z,3.30
2018-06-24T00:19:12.503Z,3.20
2018-06-24T00:20:12.706Z,3.50
2018-06-24T00:21:12.899Z,2.90
2018-06-24T00:22:13.095Z,3.70
2018-06-24T00:23:13.297Z,3.30
2018-06-24T00:24:13.499Z,3.80
2018-06-24T00:25:13.689Z,3.60
2018-06-24T00:26:13.890Z,3.70
2018-06-24T00:27:14.101Z,3.70
2018-06-24T00:28:14.302Z,3.40
2018-06-24T00:29:14.515Z,3.70
2018-06-24T00:30:14.714Z,3.70
2018-06-24T00:31:14.919Z,3.50
2018-06-24T00:32:15.131Z,3.70
2018-06-24T00:33:15.332Z,3.70
2018-06-24T00:34:15.543Z,4.40
2018-06-24T00:35:15.753Z,4.10
2018-06-24T00:36:15.963Z,4.50
2018-06-24T00:37:16.245Z,4.20
2018-06-24T00:38:16.374Z,4.00
2018-06-24T00:39:16.583Z,4.70
2018-06-24T00:40:16.772Z,4.30
2018-06-24T00:41:16.957Z,4.70
2018-06-24T00:42:17.138Z,4.30
2018-06-24T00:43:17.352Z,4.20
2018-06-24T00:44:17.551Z,3.90
2018-06-24T00:46:49.469Z,4.30
2018-06-24T00:47:49.640Z,4.20
2018-06-24T00:48:49.831Z,4.40
2018-06-24T00:49:50.038Z,3.90
2018-06-24T00:50:50.227Z,4.20
2018-06-24T00:51:50.434Z,4.00
2018-06-24T00:52:50.624Z,4.20
2018-06-24T00:53:50.806Z,4.30
2018-06-24T00:54:51.001Z,4.70
2018-06-24T00:55:51.194Z,5.00
2018-06-24T00:56:51.381Z,5.00
2018-06-24T00:57:51.569Z,4.10
2018-06-24T00:58:51.757Z,4.00
2018-06-24T00:59:51.953Z,4.20
2018-06-24T01:00:52.158Z,4.30
2018-06-24T01:01:52.351Z,4.10
2018-06-24T01:02:52.537Z,4.00
2018-06-24T01:03:52.720Z,4.20
2018-06-24T01:04:52.905Z,3.50
2018-06-24T01:05:53.089Z,4.10
2018-06-24T01:06:53.272Z,3.80
2018-06-24T01:07:53.473Z,3.80
2018-06-24T01:08:53.671Z,3.90
2018-06-24T01:09:53.880Z,4.00
2018-06-24T01:10:54.074Z,4.30
2018-06-24T01:11:54.259Z,4.20
2018-06-24T01:12:54.466Z,3.90
2018-06-24T01:13:54.673Z,4.00
2018-06-24T01:14:54.864Z,3.90
2018-06-24T01:15:55.046Z,4.70
2018-06-24T01:16:55.250Z,4.50
2018-06-24T01:17:55.436Z,4.20
2018-06-24T01:20:27.736Z,4.20
2018-06-24T01:21:27.908Z,4.50
2018-06-24T01:22:28.120Z,4.60
2018-06-24T01:23:28.323Z,4.70
2018-06-24T01:24:28.512Z,4.30
2018-06-24T01:25:28.719Z,4.60
2018-06-24T01:26:28.908Z,5.00
2018-06-24T01:27:29.100Z,4.70
2018-06-24T01:28:29.287Z,4.70
2018-06-24T01:29:29.488Z,4.40
2018-06-24T01:30:29.675Z,4.60
2018-06-24T01:31:29.872Z,4.60
2018-06-24T01:32:30.057Z,5.00
2018-06-24T01:33:30.259Z,4.80
2018-06-24T01:34:30.462Z,4.90
2018-06-24T01:35:30.668Z,4.30
2018-06-24T01:36:30.866Z,4.80
2018-06-24T01:37:31.048Z,4.90
2018-06-24T01:38:31.256Z,4.50
2018-06-24T01:39:31.460Z,4.70
2018-06-24T01:40:31.665Z,4.80
2018-06-24T01:41:31.859Z,4.40
2018-06-24T01:42:32.044Z,4.80
2018-06-24T01:43:32.232Z,4.60
2018-06-24T01:44:32.441Z,4.30
2018-06-24T01:45:32.642Z,4.70
2018-06-24T01:46:32.857Z,4.60
2018-06-24T01:47:33.109Z,4.70
2018-06-24T01:48:33.222Z,4.80
2018-06-24T01:49:33.424Z,4.10
2018-06-24T01:50:33.618Z,4.20
2018-06-24T01:51:33.826Z,4.00
2018-06-24T01:52:34.013Z,5.00
2018-06-24T01:53:34.269Z,5.30
2018-06-24T01:54:34.354Z,4.70
2018-06-24T01:55:34.532Z,4.70
2018-06-24T01:56:34.743Z,4.60
2018-06-24T01:57:34.947Z,5.10
2018-06-24T01:58:35.140Z,4.30
2018-06-24T01:59:35.333Z,4.70
2018-06-24T02:00:35.514Z,5.00
2018-06-24T02:01:35.698Z,5.30
2018-06-24T02:02:35.887Z,5.00
2018-06-24T02:03:36.077Z,5.00
2018-06-24T02:04:36.275Z,6.00
2018-06-24T02:05:36.477Z,5.50
2018-06-24T02:06:36.676Z,6.10
2018-06-24T02:07:36.866Z,6.10
2018-06-24T02:08:37.068Z,5.50
2018-06-24T02:09:37.256Z,5.00
2018-06-24T02:10:37.448Z,5.60
2018-06-24T02:11:37.657Z,5.00
2018-06-24T02:12:37.845Z,5.40
2018-06-24T02:13:38.030Z,6.50
2018-06-24T02:14:38.213Z,6.00
2018-06-24T02:15:38.411Z,6.20
2018-06-24T02:16:38.625Z,6.60
2018-06-24T02:17:38.832Z,6.40
2018-06-24T02:18:39.029Z,6.40
2018-06-24T02:19:39.235Z,6.90
2018-06-24T02:20:39.435Z,6.70
2018-06-24T02:21:39.640Z,7.10
2018-06-24T02:22:39.850Z,7.20
2018-06-24T02:23:40.053Z,7.60
2018-06-24T02:24:40.261Z,7.20
2018-06-24T02:27:12.374Z,7.00
2018-06-24T02:28:12.640Z,6.60
2018-06-24T02:29:12.694Z,6.90
2018-06-24T02:30:12.897Z,6.50
2018-06-24T02:31:13.100Z,5.70
2018-06-24T02:32:13.288Z,5.60
2018-06-24T02:33:13.483Z,5.50
2018-06-24T02:34:13.675Z,5.50
2018-06-24T02:35:13.884Z,5.50
2018-06-24T02:36:14.089Z,5.90
2018-06-24T02:37:14.269Z,6.50
2018-06-24T02:38:14.503Z,7.20
2018-06-24T02:39:14.709Z,7.30
2018-06-24T02:40:14.886Z,6.30
2018-06-24T02:41:15.074Z,7.00
2018-06-24T02:42:15.259Z,6.90
2018-06-24T02:43:15.462Z,6.80
2018-06-24T02:44:15.675Z,6.60
2018-06-24T02:45:15.865Z,6.70
2018-06-24T02:46:16.061Z,6.50
2018-06-24T02:47:16.253Z,6.60
2018-06-24T02:48:16.433Z,6.60
2018-06-24T02:49:16.625Z,7.20
2018-06-24T02:50:16.834Z,6.80
2018-06-24T02:51:17.023Z,6.70
2018-06-24T02:52:17.203Z,7.40
2018-06-24T02:53:17.408Z,7.30
2018-06-24T02:54:17.586Z,7.30
2018-06-24T02:55:17.780Z,7.50
2018-06-24T02:56:18.027Z,6.80
2018-06-24T02:57:18.232Z,7.10
2018-06-24T02:58:18.410Z,7.20
2018-06-24T02:59:18.598Z,6.70
2018-06-24T03:00:18.784Z,6.60
2018-06-24T03:01:18.960Z,7.20
2018-06-24T03:02:19.145Z,6.90
2018-06-24T03:03:19.334Z,6.80
2018-06-24T03:04:19.542Z,7.10
2018-06-24T03:05:19.763Z,6.70
2018-06-24T03:06:19.968Z,6.80
2018-06-24T03:07:20.167Z,6.80
2018-06-24T03:08:20.393Z,6.90
2018-06-24T03:09:20.591Z,6.90
2018-06-24T03:10:20.781Z,8.00
2018-06-24T03:11:20.983Z,7.20
2018-06-24T03:12:21.191Z,7.70
2018-06-24T03:13:21.394Z,8.00
2018-06-24T03:14:21.596Z,7.90
2018-06-24T03:15:21.785Z,7.30
2018-06-24T03:16:21.999Z,7.60
2018-06-24T03:17:22.194Z,7.50
2018-06-24T03:18:22.390Z,8.10
2018-06-24T03:19:22.581Z,8.30
2018-06-24T03:20:22.773Z,8.20
2018-06-24T03:21:22.961Z,8.30
2018-06-24T03:22:23.147Z,8.10
2018-06-24T03:23:23.353Z,7.60
2018-06-24T03:24:23.546Z,8.70
2018-06-24T03:25:23.726Z,8.30
2018-06-24T03:26:23.979Z,8.90
2018-06-24T03:27:24.126Z,9.50
2018-06-24T03:28:24.332Z,8.20
2018-06-24T03:29:24.511Z,8.40
2018-06-24T03:30:24.710Z,8.80
2018-06-24T03:31:24.926Z,7.20
2018-06-24T03:32:25.097Z,7.50
2018-06-24T03:33:25.299Z,7.80
2018-06-24T03:34:25.488Z,7.40
2018-06-24T03:35:25.689Z,7.60
2018-06-24T03:36:25.892Z,7.00
2018-06-24T03:37:26.085Z,7.20
2018-06-24T03:38:26.300Z,7.40
2018-06-24T03:39:26.515Z,7.10
2018-06-24T03:40:26.727Z,7.90
2018-06-24T03:41:26.929Z,7.20
2018-06-24T03:42:27.128Z,7.10
2018-06-24T03:43:27.310Z,7.20
2018-06-24T03:44:27.505Z,7.20
2018-06-24T03:45:27.694Z,7.50
2018-06-24T03:46:27.901Z,7.20
2018-06-24T03:47:28.100Z,7.40
2018-06-24T03:48:28.296Z,7.50
2018-06-24T03:49:28.476Z,7.20
2018-06-24T03:50:28.667Z,7.20
2018-06-24T03:51:28.867Z,7.30
2018-06-24T03:52:29.062Z,7.40
2018-06-24T03:53:29.271Z,7.90
2018-06-24T03:54:29.467Z,7.10
2018-06-24T03:55:29.667Z,7.20
2018-06-24T03:56:29.858Z,7.10
2018-06-24T03:57:30.138Z,7.70
2018-06-24T03:58:30.213Z,7.10
2018-06-24T03:59:30.419Z,7.00
2018-06-24T04:00:30.626Z,7.40
2018-06-24T04:01:30.800Z,7.30
2018-06-24T04:02:30.980Z,7.20
2018-06-24T04:05:03.082Z,7.10
2018-06-24T04:06:03.256Z,6.90
2018-06-24T04:07:03.454Z,6.30
2018-06-24T04:08:03.646Z,6.20
2018-06-24T04:09:03.844Z,5.90
2018-06-24T04:10:04.102Z,6.40
2018-06-24T04:11:04.163Z,6.50
2018-06-24T04:12:04.356Z,6.00
2018-06-24T04:13:04.560Z,6.10
2018-06-24T04:14:04.747Z,5.90
2018-06-24T04:16:37.091Z,5.90
2018-06-24T04:17:37.262Z,5.80
2018-06-24T04:18:37.447Z,6.40
2018-06-24T04:19:37.645Z,6.40
2018-06-24T04:20:37.829Z,6.90
2018-06-24T04:21:38.033Z,6.60
2018-06-24T04:22:38.222Z,6.70
2018-06-24T04:23:38.414Z,7.10
2018-06-24T04:24:38.602Z,6.60
2018-06-24T04:25:38.847Z,6.50
2018-06-24T04:26:38.992Z,7.10
2018-06-24T04:27:39.189Z,7.00
2018-06-24T04:28:39.391Z,6.50
2018-06-24T04:29:39.596Z,7.60
2018-06-24T04:30:39.792Z,7.70
2018-06-24T04:31:39.996Z,7.50
2018-06-24T04:32:40.195Z,7.50
2018-06-24T04:33:40.402Z,7.40
2018-06-24T04:34:40.617Z,7.10
2018-06-24T04:35:40.807Z,7.40
2018-06-24T04:36:41.008Z,7.40
2018-06-24T04:37:41.213Z,7.10
2018-06-24T04:38:41.410Z,7.20
2018-06-24T04:39:41.606Z,7.20
2018-06-24T04:42:13.714Z,7.00
2018-06-24T04:43:13.886Z,7.50
2018-06-24T04:44:14.074Z,7.60
2018-06-24T04:45:14.269Z,7.50
2018-06-24T04:47:46.401Z,7.70
2018-06-24T04:48:46.567Z,7.80
2018-06-24T04:49:46.753Z,7.60
2018-06-24T04:50:46.939Z,7.40
2018-06-24T04:51:47.189Z,7.50
2018-06-24T04:52:47.317Z,6.70
2018-06-24T04:53:47.522Z,6.40
2018-06-24T04:54:47.710Z,7.30
2018-06-24T04:55:47.912Z,6.70
2018-06-24T04:56:48.098Z,6.30
2018-06-24T04:57:48.308Z,6.40
2018-06-24T05:00:20.112Z,7.00
2018-06-24T05:01:20.283Z,6.10
2018-06-24T05:02:20.495Z,6.50
2018-06-24T05:03:20.653Z,7.10
2018-06-24T05:04:20.852Z,6.60
2018-06-24T05:05:21.056Z,6.70
2018-06-24T05:06:21.255Z,6.70
2018-06-24T05:07:21.468Z,6.10
2018-06-24T05:08:21.649Z,6.30
2018-06-24T05:09:21.842Z,6.70
2018-06-24T05:10:22.046Z,6.40
2018-06-24T05:11:22.227Z,6.60
2018-06-24T05:12:22.430Z,6.70
2018-06-24T05:13:22.634Z,6.80
2018-06-24T05:14:22.835Z,6.70
2018-06-24T05:15:23.041Z,6.50
2018-06-24T05:16:23.232Z,6.90
2018-06-24T05:17:23.420Z,6.90
2018-06-24T05:18:23.624Z,6.70
2018-06-24T05:19:23.812Z,7.20
2018-06-24T05:20:24.015Z,6.50
2018-06-24T05:21:24.193Z,6.60
2018-06-24T05:22:24.377Z,6.60
2018-06-24T05:23:24.590Z,6.60
2018-06-24T05:24:24.775Z,6.10
2018-06-24T05:25:24.979Z,6.60
2018-06-24T05:26:25.174Z,6.70
2018-06-24T05:27:25.379Z,7.20
2018-06-24T05:28:25.596Z,6.30
2018-06-24T05:29:25.777Z,6.60
2018-06-24T05:30:25.977Z,6.70
2018-06-24T05:31:26.181Z,6.60
2018-06-24T05:32:26.363Z,6.20
2018-06-24T05:33:26.554Z,6.30
2018-06-24T05:34:26.759Z,5.90
2018-06-24T05:35:26.945Z,6.60
2018-06-24T05:36:27.135Z,6.50
2018-06-24T05:37:27.337Z,6.70
2018-06-24T05:38:27.533Z,6.30
2018-06-24T05:39:27.734Z,6.50
2018-06-24T05:40:27.932Z,5.90
2018-06-24T05:43:00.068Z,5.70
2018-06-24T05:44:00.220Z,5.60
2018-06-24T05:45:00.426Z,6.20
2018-06-24T05:46:00.608Z,5.90
2018-06-24T05:47:00.809Z,6.10
2018-06-24T05:48:01.003Z,6.00
2018-06-24T05:49:01.196Z,6.20
2018-06-24T05:50:01.408Z,6.00
2018-06-24T05:51:01.591Z,5.70
2018-06-24T05:52:01.771Z,5.90
2018-06-24T05:53:01.973Z,5.60
2018-06-24T05:54:02.165Z,5.70
2018-06-24T05:55:02.377Z,5.70
2018-06-24T05:56:02.590Z,5.10
2018-06-24T05:57:02.815Z,5.00
2018-06-24T05:58:03.025Z,5.70
2018-06-24T05:59:03.217Z,5.10
2018-06-24T06:00:03.419Z,5.80
2018-06-24T06:01:03.610Z,5.00
2018-06-24T06:02:03.814Z,5.30
2018-06-24T06:03:04.007Z,5.20
2018-06-24T06:04:04.216Z,4.60
2018-06-24T06:05:04.416Z,4.90
2018-06-24T06:06:04.615Z,4.90
2018-06-24T06:07:04.807Z,5.30
2018-06-24T06:08:04.994Z,4.90
2018-06-24T06:09:05.180Z,4.90
2018-06-24T06:10:05.446Z,4.50
2018-06-24T06:11:05.586Z,4.70
2018-06-24T06:12:05.798Z,4.40
2018-06-24T06:13:06.005Z,4.30
2018-06-24T06:14:06.178Z,4.20
2018-06-24T06:15:06.370Z,4.20
2018-06-24T06:16:06.619Z,4.00
2018-06-24T06:17:06.808Z,3.90
2018-06-24T06:18:06.996Z,3.80
2018-06-24T06:19:07.196Z,4.30
2018-06-24T06:20:07.412Z,4.10
2018-06-24T06:21:07.605Z,4.10
2018-06-24T06:22:07.812Z,3.80
2018-06-24T06:24:39.964Z,3.70
2018-06-24T06:25:40.145Z,4.20
2018-06-24T06:26:40.358Z,4.00
2018-06-24T06:27:40.561Z,3.90
2018-06-24T06:28:40.752Z,3.60
2018-06-24T06:29:40.967Z,4.20
2018-06-24T06:30:41.160Z,4.00
2018-06-24T06:31:41.390Z,3.50
2018-06-24T06:32:41.595Z,3.60
2018-06-24T06:33:41.815Z,3.80
2018-06-24T06:34:42.017Z,3.60
2018-06-24T06:35:42.207Z,3.40
2018-06-24T06:36:42.473Z,3.40
2018-06-24T06:37:42.647Z,3.50
2018-06-24T06:38:42.859Z,3.30
2018-06-24T06:39:43.065Z,3.10
2018-06-24T06:40:43.269Z,3.40
2018-06-24T06:41:43.483Z,3.10
2018-06-24T06:42:43.687Z,2.90
2018-06-24T06:43:43.896Z,2.90
2018-06-24T06:44:44.114Z,3.20
2018-06-24T06:45:44.453Z,3.30
2018-06-24T06:46:44.517Z,2.90
2018-06-24T06:47:44.706Z,3.00
2018-06-24T06:48:44.926Z,3.20
2018-06-24T06:49:45.106Z,3.40
2018-06-24T06:50:45.316Z,2.90
2018-06-24T06:51:45.517Z,2.60
2018-06-24T06:52:45.712Z,3.30
2018-06-24T06:53:45.928Z,3.50
2018-06-24T06:54:46.132Z,3.10
2018-06-24T06:55:46.335Z,3.30
2018-06-24T06:56:46.548Z,3.30
2018-06-24T06:59:18.696Z,3.40
2018-06-24T07:00:18.871Z,3.30
2018-06-24T07:01:19.068Z,3.10
2018-06-24T07:02:19.257Z,3.50
2018-06-24T07:03:19.508Z,3.70
2018-06-24T07:04:19.678Z,3.40
2018-06-24T07:05:19.869Z,3.40
2018-06-24T07:06:20.064Z,3.40
2018-06-24T07:07:20.262Z,3.30
2018-06-24T07:08:20.463Z,3.30
2018-06-24T07:09:20.684Z,3.30
2018-06-24T07:10:20.882Z,2.90
2018-06-24T07:11:21.096Z,3.20
2018-06-24T07:12:21.313Z,2.90
2018-06-24T07:13:21.521Z,3.50
2018-06-24T07:14:21.707Z,3.20
2018-06-24T07:15:21.918Z,3.50
2018-06-24T07:16:22.120Z,3.50
2018-06-24T07:17:22.330Z,3.00
2018-06-24T07:18:22.532Z,3.00
2018-06-24T07:19:22.741Z,3.50
2018-06-24T07:20:22.952Z,3.90
2018-06-24T07:21:23.157Z,3.40
2018-06-24T07:22:23.370Z,3.80
2018-06-24T07:23:23.558Z,3.30
2018-06-24T07:24:23.768Z,3.40
2018-06-24T07:25:23.991Z,3.90
2018-06-24T07:26:24.187Z,2.90
2018-06-24T07:27:24.388Z,3.90
2018-06-24T07:28:24.602Z,4.10
2018-06-24T07:29:24.804Z,3.70
2018-06-24T07:30:25.031Z,3.50
2018-06-24T07:31:25.217Z,3.60
2018-06-24T07:32:25.426Z,3.80
2018-06-24T07:33:25.675Z,3.60
2018-06-24T07:34:25.831Z,3.30
2018-06-24T07:35:26.045Z,3.50
2018-06-24T07:36:26.256Z,3.50
2018-06-24T07:37:26.453Z,4.20
2018-06-24T07:38:26.688Z,3.90
2018-06-24T07:39:26.887Z,3.90
2018-06-24T07:40:27.086Z,3.80
2018-06-24T07:41:27.293Z,3.70
2018-06-24T07:42:27.505Z,3.60
2018-06-24T07:43:27.708Z,3.80
2018-06-24T07:44:27.910Z,3.20
2018-06-24T07:45:28.129Z,3.70
2018-06-24T07:46:28.339Z,3.30
2018-06-24T07:47:28.534Z,3.40
2018-06-24T07:48:28.719Z,3.70
2018-06-24T07:49:28.924Z,3.70
2018-06-24T07:50:29.113Z,3.40
2018-06-24T07:51:29.320Z,3.40
2018-06-24T07:52:29.521Z,3.60
2018-06-24T07:53:29.717Z,3.60
2018-06-24T07:54:29.919Z,3.70
2018-06-24T07:55:30.125Z,3.10
2018-06-24T07:56:30.327Z,3.20
2018-06-24T07:57:30.612Z,3.20
2018-06-24T07:58:30.732Z,4.10
2018-06-24T07:59:30.932Z,2.90
2018-06-24T08:00:31.147Z,3.40
2018-06-24T08:01:31.374Z,3.20
2018-06-24T08:02:31.568Z,3.10
2018-06-24T08:03:31.743Z,3.30
2018-06-24T08:04:31.954Z,3.50
2018-06-24T08:05:32.164Z,3.30
2018-06-24T08:08:04.295Z,3.20
2018-06-24T08:09:04.478Z,3.20
2018-06-24T08:10:04.675Z,3.50
2018-06-24T08:11:04.878Z,3.70
2018-06-24T08:12:05.090Z,3.50
2018-06-24T08:13:05.301Z,3.20
2018-06-24T08:14:05.511Z,3.70
2018-06-24T08:15:05.707Z,3.70
2018-06-24T08:16:05.919Z,3.40
2018-06-24T08:17:06.130Z,3.50
2018-06-24T08:18:06.339Z,4.00
2018-06-24T08:19:06.541Z,3.90
2018-06-24T08:21:38.675Z,3.50
2018-06-24T08:22:38.857Z,3.60
2018-06-24T08:23:39.064Z,3.90
2018-06-24T08:24:39.264Z,4.00
2018-06-24T08:25:39.474Z,4.00
2018-06-24T08:26:39.660Z,3.80
2018-06-24T08:27:39.976Z,3.90
2018-06-24T08:28:40.077Z,3.60
2018-06-24T08:29:40.294Z,3.50
2018-06-24T08:30:40.502Z,3.40
2018-06-24T08:31:40.826Z,4.00
2018-06-24T08:32:40.908Z,3.90
2018-06-24T08:33:41.115Z,3.40
2018-06-24T08:34:41.326Z,3.40
2018-06-24T08:35:41.515Z,3.80
2018-06-24T08:36:41.709Z,3.80
2018-06-24T08:37:41.911Z,3.50
2018-06-24T08:38:42.127Z,3.70
2018-06-24T08:39:42.330Z,3.50
2018-06-24T08:40:42.545Z,3.40
2018-06-24T08:41:42.757Z,3.40
2018-06-24T08:42:42.949Z,3.40
2018-06-24T08:43:43.147Z,3.60
2018-06-24T08:44:43.354Z,3.60
2018-06-24T08:45:43.538Z,3.70
2018-06-24T08:46:43.725Z,3.40
2018-06-24T08:47:43.946Z,3.70
2018-06-24T08:48:44.140Z,3.50
2018-06-24T08:49:44.351Z,3.50
2018-06-24T08:50:44.553Z,3.90
2018-06-24T08:51:44.754Z,3.20
2018-06-24T08:52:44.955Z,3.10
2018-06-24T08:53:45.169Z,2.90
2018-06-24T08:54:45.374Z,3.10
2018-06-24T08:55:45.591Z,3.60
2018-06-24T08:56:45.797Z,3.40
2018-06-24T08:57:46.009Z,3.20
2018-06-24T08:58:46.206Z,3.40
2018-06-24T08:59:46.414Z,3.00
2018-06-24T09:00:46.638Z,3.20
2018-06-24T09:01:46.842Z,3.20
2018-06-24T09:02:47.055Z,2.90
2018-06-24T09:03:47.263Z,2.80
2018-06-24T09:04:47.470Z,3.10
2018-06-24T09:05:47.699Z,2.90
2018-06-24T09:06:47.902Z,3.20
2018-06-24T09:07:48.114Z,3.00
2018-06-24T09:08:48.331Z,3.20
2018-06-24T09:09:48.551Z,2.80
2018-06-24T09:10:48.760Z,3.10
2018-06-24T09:11:48.971Z,3.20
2018-06-24T09:12:49.159Z,3.30
2018-06-24T09:13:49.360Z,3.20
2018-06-24T09:14:49.566Z,3.20
2018-06-24T09:15:49.799Z,3.20
2018-06-24T09:16:49.965Z,3.00
2018-06-24T09:17:50.184Z,2.70
2018-06-24T09:18:50.400Z,2.80
2018-06-24T09:19:50.613Z,3.10
2018-06-24T09:20:50.834Z,3.30
2018-06-24T09:21:51.035Z,2.90
2018-06-24T09:22:51.260Z,3.10
2018-06-24T09:23:51.477Z,2.90
2018-06-24T09:24:51.698Z,3.10
2018-06-24T09:25:51.899Z,3.00
2018-06-24T09:26:52.097Z,3.00
2018-06-24T09:27:52.311Z,2.90
2018-06-24T09:28:52.500Z,3.40
2018-06-24T09:29:52.702Z,3.20
2018-06-24T09:30:52.958Z,2.70
2018-06-24T09:31:53.103Z,3.40
2018-06-24T09:32:53.313Z,3.20
2018-06-24T09:33:53.504Z,2.80
2018-06-24T09:34:53.700Z,2.90
2018-06-24T09:35:53.890Z,3.00
2018-06-24T09:36:54.094Z,3.40
2018-06-24T09:39:26.307Z,2.90
2018-06-24T09:40:26.473Z,3.10
2018-06-24T09:41:26.694Z,2.80
2018-06-24T09:42:26.894Z,3.10
2018-06-24T09:44:59.040Z,2.90
2018-06-24T09:45:59.223Z,2.90
2018-06-24T09:46:59.437Z,2.90
2018-06-24T09:47:59.635Z,3.00
2018-06-24T09:48:59.848Z,2.50
2018-06-24T09:50:00.049Z,3.30
2018-06-24T09:51:00.246Z,2.90
2018-06-24T09:52:00.476Z,3.30
2018-06-24T09:53:00.697Z,2.90
2018-06-24T09:54:00.920Z,2.80
2018-06-24T09:55:01.138Z,2.60
2018-06-24T09:56:01.337Z,2.90
2018-06-24T09:57:01.527Z,2.50
2018-06-24T09:58:01.765Z,2.50
2018-06-24T09:59:01.962Z,2.40
2018-06-24T10:00:02.156Z,2.80
2018-06-24T10:01:02.379Z,2.30
2018-06-24T10:02:02.596Z,2.80
2018-06-24T10:03:02.787Z,2.80
2018-06-24T10:04:03.015Z,2.80
2018-06-24T10:05:03.234Z,2.40
2018-06-24T10:06:03.452Z,2.40
2018-06-24T10:07:03.668Z,2.20
2018-06-24T10:08:03.861Z,2.20
2018-06-24T10:09:04.076Z,2.50
2018-06-24T10:10:04.276Z,2.40
2018-06-24T10:12:36.415Z,2.50
2018-06-24T10:13:36.605Z,2.40
2018-06-24T10:14:36.817Z,2.40
2018-06-24T10:15:37.024Z,2.30
2018-06-24T10:16:37.233Z,2.30
2018-06-24T10:17:37.466Z,2.10
2018-06-24T10:18:37.649Z,2.40
2018-06-24T10:19:37.855Z,2.40
2018-06-24T10:20:38.072Z,2.50
2018-06-24T10:21:38.274Z,2.50
2018-06-24T10:22:38.489Z,2.20
2018-06-24T10:23:38.690Z,2.40
2018-06-24T10:24:38.886Z,2.30
2018-06-24T10:25:39.090Z,2.40
2018-06-24T10:26:39.285Z,2.40
2018-06-24T10:27:39.488Z,2.50
2018-06-24T10:28:39.690Z,2.30
2018-06-24T10:29:39.896Z,2.40
2018-06-24T10:30:40.128Z,2.50
2018-06-24T10:31:40.340Z,2.40
2018-06-24T10:32:40.536Z,2.00
2018-06-24T10:33:40.757Z,2.20
2018-06-24T10:34:40.964Z,2.50
2018-06-24T10:35:41.177Z,2.40
2018-06-24T10:36:41.397Z,2.20
2018-06-24T10:37:41.590Z,2.10
2018-06-24T10:38:41.815Z,2.10
2018-06-24T10:39:42.005Z,2.20
2018-06-24T10:40:42.200Z,2.50
2018-06-24T10:41:42.424Z,2.40
2018-06-24T10:42:42.632Z,2.50
2018-06-24T10:43:42.856Z,2.20
2018-06-24T10:44:43.064Z,2.60
2018-06-24T10:45:43.255Z,2.30
2018-06-24T10:46:43.466Z,2.30
2018-06-24T10:47:43.685Z,2.50
2018-06-24T10:48:43.917Z,2.10
2018-06-24T10:49:44.131Z,2.30
2018-06-24T10:50:44.339Z,2.40
2018-06-24T10:51:44.549Z,2.40
2018-06-24T10:52:44.751Z,2.40
2018-06-24T10:53:44.955Z,2.00
2018-06-24T10:54:45.168Z,2.40
2018-06-24T10:55:45.369Z,2.10
2018-06-24T10:56:45.567Z,2.10
2018-06-24T10:57:45.772Z,2.30
2018-06-24T10:58:45.973Z,2.10
2018-06-24T10:59:46.190Z,2.30
2018-06-24T11:00:46.384Z,2.10
2018-06-24T11:01:46.572Z,2.50
2018-06-24T11:02:46.764Z,2.10
2018-06-24T11:03:46.967Z,2.30
2018-06-24T11:04:47.176Z,2.20
2018-06-24T11:05:47.374Z,2.10
2018-06-24T11:06:47.594Z,2.40
2018-06-24T11:07:47.844Z,2.50
2018-06-24T11:08:48.057Z,1.90
2018-06-24T11:09:48.274Z,2.20
2018-06-24T11:10:48.439Z,2.10
2018-06-24T11:11:48.647Z,2.20
2018-06-24T11:14:20.955Z,2.40
2018-06-24T11:15:21.151Z,2.70
2018-06-24T11:16:21.371Z,2.60
2018-06-24T11:17:21.533Z,2.50
2018-06-24T11:18:21.748Z,2.30
2018-06-24T11:19:21.964Z,2.40
2018-06-24T11:20:22.186Z,2.50
2018-06-24T11:21:22.403Z,2.20
2018-06-24T11:23:54.529Z,2.70
2018-06-24T11:24:54.707Z,2.20
2018-06-24T11:25:54.917Z,2.60
2018-06-24T11:26:55.163Z,2.20
2018-06-24T11:27:55.388Z,2.50
2018-06-24T11:28:55.597Z,2.40
2018-06-24T11:29:55.811Z,2.70
2018-06-24T11:30:56.051Z,2.70
2018-06-24T11:31:56.280Z,2.60
2018-06-24T11:32:56.369Z,2.50
2018-06-24T11:33:56.576Z,2.50
2018-06-24T11:34:56.793Z,2.70
2018-06-24T11:35:56.991Z,2.50
2018-06-24T11:36:57.209Z,3.00
2018-06-24T11:37:57.418Z,3.00
2018-06-24T11:38:57.598Z,2.80
2018-06-24T11:39:57.809Z,3.10
2018-06-24T11:40:58.034Z,2.70
2018-06-24T11:41:58.257Z,2.30
2018-06-24T11:42:58.480Z,2.70
2018-06-24T11:43:58.695Z,2.70
2018-06-24T11:44:58.919Z,2.90
2018-06-24T11:45:59.107Z,2.90
2018-06-24T11:46:59.302Z,2.70
2018-06-24T11:47:59.641Z,2.50
2018-06-24T11:48:59.747Z,2.50
2018-06-24T11:49:59.959Z,2.50
2018-06-24T11:51:00.172Z,2.60
2018-06-24T11:52:00.401Z,2.60
2018-06-24T11:53:00.585Z,2.80
2018-06-24T11:54:00.799Z,2.80
2018-06-24T11:55:00.994Z,2.90
2018-06-24T11:56:01.213Z,2.50
2018-06-24T11:57:01.482Z,2.70
2018-06-24T11:58:01.614Z,2.70
2018-06-24T11:59:01.828Z,3.10
2018-06-24T12:00:02.041Z,2.50
2018-06-24T12:01:02.263Z,2.80
2018-06-24T12:02:02.541Z,2.50
2018-06-24T12:03:02.670Z,3.20
2018-06-24T12:04:02.953Z,2.80
2018-06-24T12:05:03.123Z,2.70
2018-06-24T12:06:03.335Z,2.50
2018-06-24T12:07:03.549Z,2.30
2018-06-24T12:08:03.762Z,3.20
2018-06-24T12:09:03.969Z,3.00
2018-06-24T12:10:04.176Z,2.50
2018-06-24T12:11:04.388Z,2.70
2018-06-24T12:12:04.574Z,2.60
2018-06-24T12:13:04.764Z,2.50
2018-06-24T12:14:04.959Z,2.40
2018-06-24T12:15:05.174Z,2.80
2018-06-24T12:16:05.356Z,2.60
2018-06-24T12:17:05.559Z,2.70
2018-06-24T12:18:05.796Z,2.30
2018-06-24T12:19:05.967Z,2.70
2018-06-24T12:20:06.186Z,2.90
2018-06-24T12:21:06.375Z,2.70
2018-06-24T12:22:06.599Z,3.10
2018-06-24T12:23:06.822Z,2.40
2018-06-24T12:24:07.027Z,2.40
2018-06-24T12:25:07.319Z,3.00
2018-06-24T12:26:07.494Z,2.60
2018-06-24T12:27:07.709Z,2.50
2018-06-24T12:28:07.896Z,2.70
2018-06-24T12:29:08.113Z,2.70
2018-06-24T12:30:08.307Z,2.60
2018-06-24T12:31:08.532Z,2.50
2018-06-24T12:32:08.747Z,2.80
2018-06-24T12:33:08.939Z,2.10
2018-06-24T12:34:09.140Z,2.30
2018-06-24T12:35:09.373Z,2.30
2018-06-24T12:36:09.580Z,2.60
2018-06-24T12:37:09.786Z,2.50
2018-06-24T12:38:09.998Z,2.50
2018-06-24T12:39:10.260Z,2.00
2018-06-24T12:40:10.348Z,2.50
2018-06-24T12:41:10.560Z,2.20
2018-06-24T12:42:10.776Z,2.40
2018-06-24T12:43:10.987Z,2.50
2018-06-24T12:44:11.197Z,2.00
2018-06-24T12:45:11.389Z,2.20
2018-06-24T12:46:11.576Z,2.40
2018-06-24T12:47:11.770Z,2.70
2018-06-24T12:48:11.980Z,2.50
2018-06-24T12:49:12.187Z,2.50
2018-06-24T12:50:12.411Z,2.30
2018-06-24T12:51:12.615Z,2.40
2018-06-24T12:52:12.818Z,2.70
2018-06-24T12:53:13.043Z,2.30
2018-06-24T12:54:13.262Z,2.60
2018-06-24T12:56:45.669Z,2.20
2018-06-24T12:57:45.850Z,2.30
2018-06-24T12:58:46.202Z,2.40
2018-06-24T12:59:46.574Z,2.50
2018-06-24T13:00:46.877Z,2.00
2018-06-24T13:01:46.691Z,2.30
2018-06-24T13:02:46.909Z,2.20
2018-06-24T13:03:47.129Z,2.40
2018-06-24T13:04:47.338Z,2.50
2018-06-24T13:05:47.547Z,2.30
2018-06-24T13:06:47.757Z,2.60
2018-06-24T13:07:47.979Z,2.40
2018-06-24T13:08:48.330Z,2.40
2018-06-24T13:09:48.416Z,2.20
2018-06-24T13:10:48.621Z,2.50
2018-06-24T13:11:48.831Z,2.60
2018-06-24T13:12:49.045Z,2.50
2018-06-24T13:13:49.253Z,2.30
2018-06-24T13:14:49.473Z,2.30
2018-06-24T13:15:49.679Z,2.30
2018-06-24T13:16:49.900Z,2.20
2018-06-24T13:17:50.128Z,2.40
2018-06-24T13:18:50.327Z,2.10
2018-06-24T13:19:50.531Z,2.10
2018-06-24T13:20:50.707Z,2.40
2018-06-24T13:21:50.922Z,2.10
2018-06-24T13:22:51.132Z,2.30
2018-06-24T13:23:51.321Z,2.20
2018-06-24T13:24:51.526Z,2.10
2018-06-24T13:25:51.745Z,2.00
2018-06-24T13:26:52.105Z,2.00
2018-06-24T13:27:52.175Z,2.20
2018-06-24T13:28:52.389Z,2.20
2018-06-24T13:29:52.595Z,2.10
2018-06-24T13:30:52.803Z,2.30
2018-06-24T13:31:52.998Z,2.10
2018-06-24T13:32:53.190Z,2.40
2018-06-24T13:33:53.399Z,2.40
2018-06-24T13:34:53.589Z,2.10
2018-06-24T13:35:53.778Z,2.10
2018-06-24T13:36:53.982Z,2.00
2018-06-24T13:37:54.203Z,2.20
2018-06-24T13:38:54.418Z,2.40
2018-06-24T13:39:54.638Z,2.40
2018-06-24T13:40:54.822Z,2.20
2018-06-24T13:41:55.040Z,2.20
2018-06-24T13:42:55.270Z,2.20
2018-06-24T13:43:55.437Z,2.20
2018-06-24T13:44:55.642Z,2.20
2018-06-24T13:45:55.850Z,2.10
2018-06-24T13:46:56.042Z,2.30
2018-06-24T13:47:56.233Z,2.10
2018-06-24T13:48:56.422Z,2.00
2018-06-24T13:49:56.615Z,2.30